sensor_id;sensor_type;location;lat;lon;timestamp;pressure;altitude;pressure_sealevel;temperature;humidity
71344;BME280;59146;43.850;25.948;2023-05-09T00:02:23;101841.03;;;8.90;100.00
71344;BME280;59146;43.850;25.948;2023-05-09T00:04:48;101786.44;;;8.59;100.00
71344;BME280;59146;43.850;25.948;2023-05-09T00:07:13;101726.84;;;8.22;100.00
71344;BME280;59146;43.850;25.948;2023-05-09T00:09:39;101808.44;;;8.76;100.00
71344;BME280;59146;43.850;25.948;2023-05-09T00:12:04;101766.38;;;8.62;100.00
71344;BME280;59146;43.850;25.948;2023-05-09T00:14:30;101653.38;;;7.86;100.00
71344;BME280;59146;43.850;25.948;2023-05-09T00:16:57;101805.91;;;8.73;100.00
71344;BME280;59146;43.850;25.948;2023-05-09T00:19:23;101770.34;;;8.46;100.00
71344;BME280;59146;43.850;25.948;2023-05-09T00:21:49;101810.72;;;8.59;100.00
71344;BME280;59146;43.850;25.948;2023-05-09T00:24:14;101801.03;;;8.64;100.00
71344;BME280;59146;43.850;25.948;2023-05-09T00:26:40;101734.59;;;8.25;100.00
71344;BME280;59146;43.850;25.948;2023-05-09T00:29:05;101764.06;;;8.53;100.00
71344;BME280;59146;43.850;25.948;2023-05-09T00:31:30;101818.00;;;8.76;100.00
71344;BME280;59146;43.850;25.948;2023-05-09T00:33:56;101808.63;;;8.70;100.00
71344;BME280;59146;43.850;25.948;2023-05-09T00:36:21;101762.84;;;8.37;100.00
71344;BME280;59146;43.850;25.948;2023-05-09T00:38:47;101837.69;;;8.85;100.00
71344;BME280;59146;43.850;25.948;2023-05-09T00:41:13;101809.44;;;8.72;100.00
71344;BME280;59146;43.850;25.948;2023-05-09T00:43:39;101804.22;;;8.72;100.00
71344;BME280;59146;43.850;25.948;2023-05-09T00:46:05;101806.91;;;8.71;100.00
71344;BME280;59146;43.850;25.948;2023-05-09T00:48:30;101782.28;;;8.53;100.00
71344;BME280;59146;43.850;25.948;2023-05-09T00:50:56;101833.28;;;8.60;100.00
71344;BME280;59146;43.850;25.948;2023-05-09T00:53:21;101787.75;;;8.44;100.00
71344;BME280;59146;43.850;25.948;2023-05-09T00:55:47;101807.47;;;8.53;100.00
71344;BME280;59146;43.850;25.948;2023-05-09T00:58:12;101806.22;;;8.64;100.00
71344;BME280;59146;43.850;25.948;2023-05-09T01:00:38;101655.69;;;7.68;100.00
71344;BME280;59146;43.850;25.948;2023-05-09T01:03:04;101841.38;;;8.79;100.00
71344;BME280;59146;43.850;25.948;2023-05-09T01:05:39;101848.31;;;8.78;100.00
71344;BME280;59146;43.850;25.948;2023-05-09T01:08:33;101835.28;;;8.78;100.00
71344;BME280;59146;43.850;25.948;2023-05-09T01:11:22;101683.25;;;7.73;100.00
71344;BME280;59146;43.850;25.948;2023-05-09T01:14:07;101767.13;;;8.38;100.00
71344;BME280;59146;43.850;25.948;2023-05-09T01:19:41;101840.22;;;8.88;100.00
71344;BME280;59146;43.850;25.948;2023-05-09T01:22:13;101836.91;;;8.82;100.00
71344;BME280;59146;43.850;25.948;2023-05-09T01:27:57;101833.78;;;8.71;100.00
71344;BME280;59146;43.850;25.948;2023-05-09T01:30:27;101810.94;;;8.53;100.00
71344;BME280;59146;43.850;25.948;2023-05-09T01:32:59;101830.09;;;8.78;100.00
71344;BME280;59146;43.850;25.948;2023-05-09T01:35:25;101844.63;;;8.86;100.00
71344;BME280;59146;43.850;25.948;2023-05-09T01:37:55;101817.41;;;8.68;100.00
71344;BME280;59146;43.850;25.948;2023-05-09T01:40:22;101770.53;;;8.40;100.00
71344;BME280;59146;43.850;25.948;2023-05-09T01:42:54;101632.00;;;7.49;100.00
71344;BME280;59146;43.850;25.948;2023-05-09T01:45:22;101783.34;;;8.46;100.00
71344;BME280;59146;43.850;25.948;2023-05-09T01:47:49;101845.78;;;8.75;100.00
71344;BME280;59146;43.850;25.948;2023-05-09T01:50:16;101828.47;;;8.74;99.86
71344;BME280;59146;43.850;25.948;2023-05-09T01:52:42;101782.28;;;8.53;99.68
71344;BME280;59146;43.850;25.948;2023-05-09T01:55:09;101816.66;;;8.64;99.17
71344;BME280;59146;43.850;25.948;2023-05-09T01:57:36;101799.69;;;8.51;99.54
71344;BME280;59146;43.850;25.948;2023-05-09T02:00:03;101791.38;;;8.40;99.50
71344;BME280;59146;43.850;25.948;2023-05-09T02:02:31;101787.97;;;8.38;99.24
71344;BME280;59146;43.850;25.948;2023-05-09T02:04:57;101818.34;;;8.65;99.92
71344;BME280;59146;43.850;25.948;2023-05-09T02:07:23;101747.50;;;8.28;99.07
71344;BME280;59146;43.850;25.948;2023-05-09T02:09:50;101768.75;;;8.42;97.92
71344;BME280;59146;43.850;25.948;2023-05-09T02:12:18;101799.16;;;8.42;96.71
71344;BME280;59146;43.850;25.948;2023-05-09T02:14:44;101831.47;;;8.62;97.30
71344;BME280;59146;43.850;25.948;2023-05-09T02:17:09;101768.94;;;8.36;98.70
71344;BME280;59146;43.850;25.948;2023-05-09T02:19:35;101677.13;;;7.76;97.42
71344;BME280;59146;43.850;25.948;2023-05-09T02:22:01;101833.78;;;8.71;97.44
71344;BME280;59146;43.850;25.948;2023-05-09T02:24:30;101809.31;;;8.49;97.11
71344;BME280;59146;43.850;25.948;2023-05-09T02:26:56;101825.31;;;8.65;97.27
71344;BME280;59146;43.850;25.948;2023-05-09T02:29:30;101812.44;;;8.60;97.50
71344;BME280;59146;43.850;25.948;2023-05-09T02:32:27;101813.78;;;8.72;96.73
71344;BME280;59146;43.850;25.948;2023-05-09T02:34:51;101840.09;;;8.91;96.30
71344;BME280;59146;43.850;25.948;2023-05-09T02:37:18;101829.13;;;8.81;95.88
71344;BME280;59146;43.850;25.948;2023-05-09T02:39:45;101796.50;;;8.43;95.20
71344;BME280;59146;43.850;25.948;2023-05-09T02:42:17;101804.19;;;8.46;96.01
71344;BME280;59146;43.850;25.948;2023-05-09T02:44:43;101806.72;;;8.49;96.48
71344;BME280;59146;43.850;25.948;2023-05-09T02:47:08;101781.19;;;8.33;95.78
71344;BME280;59146;43.850;25.948;2023-05-09T02:49:34;101683.66;;;7.89;95.52
71344;BME280;59146;43.850;25.948;2023-05-09T02:52:00;101841.50;;;8.74;94.98
71344;BME280;59146;43.850;25.948;2023-05-09T02:54:25;101779.47;;;8.32;94.86
71344;BME280;59146;43.850;25.948;2023-05-09T02:56:51;101832.28;;;8.64;95.27
71344;BME280;59146;43.850;25.948;2023-05-09T02:59:17;101847.06;;;8.64;95.31
71344;BME280;59146;43.850;25.948;2023-05-09T03:01:44;101758.81;;;8.27;94.58
71344;BME280;59146;43.850;25.948;2023-05-09T03:04:09;101845.25;;;8.66;95.04
71344;BME280;59146;43.850;25.948;2023-05-09T03:06:34;101805.72;;;8.53;94.68
71344;BME280;59146;43.850;25.948;2023-05-09T03:09:00;101809.59;;;8.40;94.95
71344;BME280;59146;43.850;25.948;2023-05-09T03:11:25;101740.50;;;8.01;95.68
71344;BME280;59146;43.850;25.948;2023-05-09T03:13:51;101780.28;;;8.34;95.28
71344;BME280;59146;43.850;25.948;2023-05-09T03:16:17;101831.44;;;8.64;94.12
71344;BME280;59146;43.850;25.948;2023-05-09T03:18:43;101848.38;;;8.77;94.18
71344;BME280;59146;43.850;25.948;2023-05-09T03:21:08;101813.84;;;8.43;94.43
71344;BME280;59146;43.850;25.948;2023-05-09T03:23:34;101888.06;;;8.85;93.60
71344;BME280;59146;43.850;25.948;2023-05-09T03:25:59;101864.63;;;8.57;94.29
71344;BME280;59146;43.850;25.948;2023-05-09T03:28:26;101868.28;;;8.52;94.83
71344;BME280;59146;43.850;25.948;2023-05-09T03:30:52;101873.72;;;8.72;95.67
71344;BME280;59146;43.850;25.948;2023-05-09T03:33:17;101894.41;;;8.76;93.27
71344;BME280;59146;43.850;25.948;2023-05-09T03:35:42;101917.34;;;8.93;92.75
71344;BME280;59146;43.850;25.948;2023-05-09T03:38:08;101851.72;;;8.54;92.79
71344;BME280;59146;43.850;25.948;2023-05-09T03:40:34;101884.66;;;8.55;92.23
71344;BME280;59146;43.850;25.948;2023-05-09T03:42:59;101912.13;;;8.65;92.96
71344;BME280;59146;43.850;25.948;2023-05-09T03:45:25;101899.63;;;8.76;93.12
71344;BME280;59146;43.850;25.948;2023-05-09T03:47:50;101801.41;;;8.23;92.40
71344;BME280;59146;43.850;25.948;2023-05-09T03:50:16;101894.41;;;8.76;91.73
71344;BME280;59146;43.850;25.948;2023-05-09T03:52:41;101886.44;;;8.53;92.64
71344;BME280;59146;43.850;25.948;2023-05-09T03:55:07;101850.88;;;8.23;93.28
71344;BME280;59146;43.850;25.948;2023-05-09T03:57:34;101919.19;;;8.62;92.94
71344;BME280;59146;43.850;25.948;2023-05-09T03:59:59;101916.25;;;8.72;92.30
71344;BME280;59146;43.850;25.948;2023-05-09T04:02:25;101913.50;;;8.77;91.95
71344;BME280;59146;43.850;25.948;2023-05-09T04:04:51;101934.91;;;8.87;91.79
71344;BME280;59146;43.850;25.948;2023-05-09T04:07:17;101915.25;;;8.76;91.59
71344;BME280;59146;43.850;25.948;2023-05-09T04:09:43;101954.00;;;8.87;91.17
71344;BME280;59146;43.850;25.948;2023-05-09T04:12:09;101925.28;;;8.89;91.96
71344;BME280;59146;43.850;25.948;2023-05-09T04:14:34;101935.84;;;8.84;91.75
71344;BME280;59146;43.850;25.948;2023-05-09T04:17:00;101903.22;;;8.72;92.10
71344;BME280;59146;43.850;25.948;2023-05-09T04:19:25;101922.88;;;8.82;90.80
71344;BME280;59146;43.850;25.948;2023-05-09T04:21:51;101918.94;;;8.69;90.66
71344;BME280;59146;43.850;25.948;2023-05-09T04:24:16;101951.78;;;8.75;91.50
71344;BME280;59146;43.850;25.948;2023-05-09T04:26:41;101892.91;;;8.40;91.67
71344;BME280;59146;43.850;25.948;2023-05-09T04:29:07;101917.94;;;8.73;91.16
71344;BME280;59146;43.850;25.948;2023-05-09T04:31:33;101889.59;;;8.64;90.98
71344;BME280;59146;43.850;25.948;2023-05-09T04:33:59;101899.91;;;8.67;90.43
71344;BME280;59146;43.850;25.948;2023-05-09T04:36:24;101872.63;;;8.51;89.64
71344;BME280;59146;43.850;25.948;2023-05-09T04:38:51;101946.13;;;8.89;90.22
71344;BME280;59146;43.850;25.948;2023-05-09T04:41:17;101936.81;;;8.82;90.29
71344;BME280;59146;43.850;25.948;2023-05-09T04:43:42;101938.28;;;8.90;89.59
71344;BME280;59146;43.850;25.948;2023-05-09T04:46:07;101898.22;;;8.66;89.10
71344;BME280;59146;43.850;25.948;2023-05-09T04:48:34;101952.69;;;9.02;88.67
71344;BME280;59146;43.850;25.948;2023-05-09T04:51:00;101921.00;;;8.88;88.44
71344;BME280;59146;43.850;25.948;2023-05-09T04:53:25;101968.41;;;8.99;89.37
71344;BME280;59146;43.850;25.948;2023-05-09T04:55:52;101906.72;;;8.71;89.46
71344;BME280;59146;43.850;25.948;2023-05-09T04:58:18;101884.25;;;8.67;88.84
71344;BME280;59146;43.850;25.948;2023-05-09T05:00:43;101945.47;;;9.10;88.00
71344;BME280;59146;43.850;25.948;2023-05-09T05:03:09;101895.13;;;8.82;87.97
71344;BME280;59146;43.850;25.948;2023-05-09T05:05:34;101890.06;;;8.77;87.92
71344;BME280;59146;43.850;25.948;2023-05-09T05:08:00;101906.38;;;8.82;87.37
71344;BME280;59146;43.850;25.948;2023-05-09T05:10:25;101822.84;;;8.03;88.26
71344;BME280;59146;43.850;25.948;2023-05-09T05:12:50;101933.19;;;9.13;88.46
71344;BME280;59146;43.850;25.948;2023-05-09T05:15:16;101919.31;;;9.13;87.38
71344;BME280;59146;43.850;25.948;2023-05-09T05:17:43;101884.72;;;9.08;86.76
71344;BME280;59146;43.850;25.948;2023-05-09T05:20:09;101922.72;;;9.41;85.68
71344;BME280;59146;43.850;25.948;2023-05-09T05:22:35;101921.66;;;9.20;86.03
71344;BME280;59146;43.850;25.948;2023-05-09T05:25:00;101927.78;;;9.19;85.65
71344;BME280;59146;43.850;25.948;2023-05-09T05:27:27;101937.44;;;9.17;85.98
71344;BME280;59146;43.850;25.948;2023-05-09T05:29:53;101934.97;;;9.13;86.19
71344;BME280;59146;43.850;25.948;2023-05-09T05:32:18;101912.78;;;9.26;85.85
71344;BME280;59146;43.850;25.948;2023-05-09T05:34:44;101929.38;;;9.49;85.28
71344;BME280;59146;43.850;25.948;2023-05-09T05:37:09;101963.31;;;9.74;85.11
71344;BME280;59146;43.850;25.948;2023-05-09T05:39:34;101962.84;;;9.63;83.80
71344;BME280;59146;43.850;25.948;2023-05-09T05:42:00;101986.69;;;9.52;83.94
71344;BME280;59146;43.850;25.948;2023-05-09T05:44:25;101960.47;;;9.55;84.64
71344;BME280;59146;43.850;25.948;2023-05-09T05:46:51;101976.78;;;9.62;84.78
71344;BME280;59146;43.850;25.948;2023-05-09T05:49:16;101917.69;;;9.35;84.36
71344;BME280;59146;43.850;25.948;2023-05-09T05:51:42;101939.38;;;9.37;83.65
71344;BME280;59146;43.850;25.948;2023-05-09T05:54:07;101953.69;;;9.24;84.16
71344;BME280;59146;43.850;25.948;2023-05-09T05:56:32;101964.41;;;9.42;84.65
71344;BME280;59146;43.850;25.948;2023-05-09T05:58:58;101926.53;;;9.31;84.08
71344;BME280;59146;43.850;25.948;2023-05-09T06:01:24;101990.75;;;9.61;83.44
71344;BME280;59146;43.850;25.948;2023-05-09T06:03:49;101972.50;;;9.59;84.05
71344;BME280;59146;43.850;25.948;2023-05-09T06:06:19;101891.09;;;9.25;84.02
71344;BME280;59146;43.850;25.948;2023-05-09T06:08:46;101930.50;;;9.42;84.60
71344;BME280;59146;43.850;25.948;2023-05-09T06:11:14;101916.19;;;9.54;84.69
71344;BME280;59146;43.850;25.948;2023-05-09T06:13:40;101952.41;;;9.88;83.88
71344;BME280;59146;43.850;25.948;2023-05-09T06:16:05;101926.31;;;9.88;83.04
71344;BME280;59146;43.850;25.948;2023-05-09T06:18:31;101922.69;;;9.67;82.00
71344;BME280;59146;43.850;25.948;2023-05-09T06:20:57;101897.84;;;9.31;83.81
71344;BME280;59146;43.850;25.948;2023-05-09T06:23:22;101947.56;;;9.77;83.59
71344;BME280;59146;43.850;25.948;2023-05-09T06:25:48;101908.88;;;9.63;82.71
71344;BME280;59146;43.850;25.948;2023-05-09T06:28:13;101970.53;;;9.92;82.85
71344;BME280;59146;43.850;25.948;2023-05-09T06:30:39;101956.69;;;9.90;82.93
71344;BME280;59146;43.850;25.948;2023-05-09T06:33:04;101965.53;;;9.86;83.36
71344;BME280;59146;43.850;25.948;2023-05-09T06:35:30;101972.06;;;9.73;84.13
71344;BME280;59146;43.850;25.948;2023-05-09T06:37:55;101921.09;;;9.63;83.81
71344;BME280;59146;43.850;25.948;2023-05-09T06:40:21;101816.28;;;9.01;82.82
71344;BME280;59146;43.850;25.948;2023-05-09T06:42:46;101947.03;;;9.92;82.91
71344;BME280;59146;43.850;25.948;2023-05-09T06:45:11;101943.34;;;9.98;82.42
71344;BME280;59146;43.850;25.948;2023-05-09T06:47:37;101977.44;;;10.19;82.53
71344;BME280;59146;43.850;25.948;2023-05-09T06:50:03;101934.00;;;9.92;82.98
71344;BME280;59146;43.850;25.948;2023-05-09T06:52:28;101912.75;;;10.01;82.61
71344;BME280;59146;43.850;25.948;2023-05-09T06:54:53;101900.91;;;9.93;81.74
71344;BME280;59146;43.850;25.948;2023-05-09T06:57:19;101970.16;;;10.74;81.42
71344;BME280;59146;43.850;25.948;2023-05-09T06:59:45;101974.38;;;10.78;80.19
71344;BME280;59146;43.850;25.948;2023-05-09T07:02:10;101917.31;;;10.44;80.88
71344;BME280;59146;43.850;25.948;2023-05-09T07:04:36;101951.16;;;10.70;79.81
71344;BME280;59146;43.850;25.948;2023-05-09T07:07:04;101944.13;;;10.71;78.38
71344;BME280;59146;43.850;25.948;2023-05-09T07:09:30;101904.94;;;10.49;79.24
71344;BME280;59146;43.850;25.948;2023-05-09T07:11:55;101977.84;;;10.78;79.29
71344;BME280;59146;43.850;25.948;2023-05-09T07:14:20;101887.72;;;10.20;79.48
71344;BME280;59146;43.850;25.948;2023-05-09T07:16:46;101986.00;;;10.69;79.64
71344;BME280;59146;43.850;25.948;2023-05-09T07:19:11;101941.53;;;10.48;79.49
71344;BME280;59146;43.850;25.948;2023-05-09T07:21:37;101946.66;;;10.51;79.97
71344;BME280;59146;43.850;25.948;2023-05-09T07:24:02;101908.78;;;10.39;79.71
71344;BME280;59146;43.850;25.948;2023-05-09T07:26:28;101917.31;;;10.21;79.87
71344;BME280;59146;43.850;25.948;2023-05-09T07:28:54;101936.16;;;10.29;81.21
71344;BME280;59146;43.850;25.948;2023-05-09T07:31:19;101988.56;;;10.71;79.95
71344;BME280;59146;43.850;25.948;2023-05-09T07:33:45;101963.47;;;10.67;79.65
71344;BME280;59146;43.850;25.948;2023-05-09T07:36:10;101943.91;;;10.54;79.47
71344;BME280;59146;43.850;25.948;2023-05-09T07:38:38;101918.16;;;10.45;79.57
71344;BME280;59146;43.850;25.948;2023-05-09T07:41:04;101932.28;;;10.39;80.20
71344;BME280;59146;43.850;25.948;2023-05-09T07:43:30;101959.72;;;10.51;80.08
71344;BME280;59146;43.850;25.948;2023-05-09T07:45:56;101981.34;;;10.77;80.21
71344;BME280;59146;43.850;25.948;2023-05-09T07:48:21;101834.97;;;9.88;79.52
71344;BME280;59146;43.850;25.948;2023-05-09T07:50:47;101924.66;;;10.56;79.84
71344;BME280;59146;43.850;25.948;2023-05-09T07:53:12;101944.94;;;10.73;79.95
71344;BME280;59146;43.850;25.948;2023-05-09T07:55:38;101886.19;;;10.38;79.32
71344;BME280;59146;43.850;25.948;2023-05-09T07:58:03;101952.09;;;10.68;79.92
71344;BME280;59146;43.850;25.948;2023-05-09T08:00:28;101917.59;;;10.60;80.57
71344;BME280;59146;43.850;25.948;2023-05-09T08:02:54;101945.56;;;11.01;78.03
71344;BME280;59146;43.850;25.948;2023-05-09T08:05:19;101840.38;;;10.29;79.09
71344;BME280;59146;43.850;25.948;2023-05-09T08:07:45;101945.63;;;10.99;78.82
71344;BME280;59146;43.850;25.948;2023-05-09T08:10:10;101936.25;;;11.15;78.26
71344;BME280;59146;43.850;25.948;2023-05-09T08:12:36;101936.69;;;11.27;76.60
71344;BME280;59146;43.850;25.948;2023-05-09T08:15:02;101931.16;;;11.12;76.46
71344;BME280;59146;43.850;25.948;2023-05-09T08:17:27;101954.75;;;11.11;76.94
71344;BME280;59146;43.850;25.948;2023-05-09T08:19:53;101964.59;;;11.48;76.13
71344;BME280;59146;43.850;25.948;2023-05-09T08:22:19;101914.03;;;11.26;75.24
71344;BME280;59146;43.850;25.948;2023-05-09T08:24:45;101867.81;;;11.26;75.14
71344;BME280;59146;43.850;25.948;2023-05-09T08:27:12;101913.75;;;11.53;74.23
71344;BME280;59146;43.850;25.948;2023-05-09T08:29:41;101961.03;;;11.90;74.44
71344;BME280;59146;43.850;25.948;2023-05-09T08:32:07;101943.19;;;11.58;75.55
71344;BME280;59146;43.850;25.948;2023-05-09T08:34:32;101948.84;;;11.69;75.83
71344;BME280;59146;43.850;25.948;2023-05-09T08:37:02;101956.50;;;12.14;74.71
71344;BME280;59146;43.850;25.948;2023-05-09T08:39:29;101886.75;;;11.93;73.26
71344;BME280;59146;43.850;25.948;2023-05-09T08:41:58;101965.97;;;12.55;72.07
71344;BME280;59146;43.850;25.948;2023-05-09T08:44:25;101901.31;;;12.19;72.04
71344;BME280;59146;43.850;25.948;2023-05-09T08:46:54;101929.63;;;12.29;72.26
71344;BME280;59146;43.850;25.948;2023-05-09T08:49:21;101877.00;;;12.15;72.29
71344;BME280;59146;43.850;25.948;2023-05-09T08:51:47;101908.31;;;12.55;72.42
71344;BME280;59146;43.850;25.948;2023-05-09T08:54:14;101940.47;;;12.96;70.50
71344;BME280;59146;43.850;25.948;2023-05-09T08:56:40;101888.81;;;12.80;69.06
71344;BME280;59146;43.850;25.948;2023-05-09T08:59:06;101957.06;;;13.15;69.05
71344;BME280;59146;43.850;25.948;2023-05-09T09:01:32;101892.56;;;12.74;69.99
71344;BME280;59146;43.850;25.948;2023-05-09T09:04:00;101894.53;;;12.88;69.93
71344;BME280;59146;43.850;25.948;2023-05-09T09:06:27;101919.25;;;13.36;68.63
71344;BME280;59146;43.850;25.948;2023-05-09T09:08:53;101836.63;;;12.92;65.29
71344;BME280;59146;43.850;25.948;2023-05-09T09:11:20;101880.75;;;13.01;65.56
71344;BME280;59146;43.850;25.948;2023-05-09T09:13:49;101911.16;;;13.75;64.49
71344;BME280;59146;43.850;25.948;2023-05-09T09:16:21;101921.19;;;13.67;64.22
71344;BME280;59146;43.850;25.948;2023-05-09T09:18:47;101880.66;;;13.55;64.21
71344;BME280;59146;43.850;25.948;2023-05-09T09:21:14;101933.69;;;13.79;63.04
71344;BME280;59146;43.850;25.948;2023-05-09T09:23:44;101920.41;;;13.65;63.72
71344;BME280;59146;43.850;25.948;2023-05-09T09:26:12;101927.00;;;13.57;64.00
71344;BME280;59146;43.850;25.948;2023-05-09T09:28:37;101784.78;;;12.63;63.66
71344;BME280;59146;43.850;25.948;2023-05-09T09:31:19;101888.53;;;13.21;64.97
71344;BME280;59146;43.850;25.948;2023-05-09T09:33:44;101826.34;;;13.06;64.03
71344;BME280;59146;43.850;25.948;2023-05-09T09:36:10;101927.53;;;13.80;63.57
71344;BME280;59146;43.850;25.948;2023-05-09T09:38:39;101892.97;;;13.88;63.70
71344;BME280;59146;43.850;25.948;2023-05-09T09:41:05;101915.59;;;14.40;62.20
71344;BME280;59146;43.850;25.948;2023-05-09T09:43:31;101823.31;;;14.29;61.66
71344;BME280;59146;43.850;25.948;2023-05-09T09:46:00;101810.00;;;14.63;60.83
71344;BME280;59146;43.850;25.948;2023-05-09T09:48:29;101883.38;;;15.13;59.10
71344;BME280;59146;43.850;25.948;2023-05-09T09:50:56;101863.00;;;14.71;59.10
71344;BME280;59146;43.850;25.948;2023-05-09T09:53:21;101912.13;;;15.32;58.72
71344;BME280;59146;43.850;25.948;2023-05-09T09:55:51;101912.28;;;15.88;57.78
71344;BME280;59146;43.850;25.948;2023-05-09T09:58:18;101906.97;;;15.60;56.81
71344;BME280;59146;43.850;25.948;2023-05-09T10:01:09;101866.34;;;15.04;57.71
71344;BME280;59146;43.850;25.948;2023-05-09T10:03:39;101843.31;;;14.63;58.49
71344;BME280;59146;43.850;25.948;2023-05-09T10:06:12;101836.03;;;14.52;58.05
71344;BME280;59146;43.850;25.948;2023-05-09T10:08:43;101905.94;;;14.72;58.73
71344;BME280;59146;43.850;25.948;2023-05-09T10:11:11;101849.91;;;14.23;60.36
71344;BME280;59146;43.850;25.948;2023-05-09T10:13:36;101872.81;;;14.83;58.97
71344;BME280;59146;43.850;25.948;2023-05-09T10:16:03;101855.97;;;15.31;57.97
71344;BME280;59146;43.850;25.948;2023-05-09T10:18:30;101883.78;;;15.80;56.29
71344;BME280;59146;43.850;25.948;2023-05-09T10:20:57;101841.44;;;15.40;56.96
71344;BME280;59146;43.850;25.948;2023-05-09T10:23:30;101857.69;;;15.02;58.15
71344;BME280;59146;43.850;25.948;2023-05-09T10:28:32;101860.97;;;14.76;57.54
71344;BME280;59146;43.850;25.948;2023-05-09T10:31:04;101915.59;;;15.32;57.95
71344;BME280;59146;43.850;25.948;2023-05-09T10:33:42;101885.50;;;15.06;58.87
71344;BME280;59146;43.850;25.948;2023-05-09T10:36:10;101772.97;;;14.37;57.34
71344;BME280;59146;43.850;25.948;2023-05-09T10:38:37;101892.19;;;15.28;57.90
71344;BME280;59146;43.850;25.948;2023-05-09T10:41:03;101897.19;;;15.32;55.89
71344;BME280;59146;43.850;25.948;2023-05-09T10:43:31;101800.22;;;14.65;55.44
71344;BME280;59146;43.850;25.948;2023-05-09T10:45:56;101843.38;;;15.22;54.23
71344;BME280;59146;43.850;25.948;2023-05-09T10:48:22;101796.91;;;15.07;52.98
71344;BME280;59146;43.850;25.948;2023-05-09T10:50:49;101867.47;;;15.60;52.92
71344;BME280;59146;43.850;25.948;2023-05-09T10:53:14;101837.56;;;15.31;51.85
71344;BME280;59146;43.850;25.948;2023-05-09T10:58:28;101870.31;;;15.85;54.31
71344;BME280;59146;43.850;25.948;2023-05-09T11:00:55;101883.41;;;15.43;56.42
71344;BME280;59146;43.850;25.948;2023-05-09T11:03:21;101908.72;;;15.30;57.44
71344;BME280;59146;43.850;25.948;2023-05-09T11:05:50;101853.22;;;15.19;56.90
71344;BME280;59146;43.850;25.948;2023-05-09T11:10:48;101906.25;;;15.72;55.26
71344;BME280;59146;43.850;25.948;2023-05-09T11:13:18;101900.81;;;15.75;54.80
71344;BME280;59146;43.850;25.948;2023-05-09T11:18:25;101851.63;;;15.16;56.30
71344;BME280;59146;43.850;25.948;2023-05-09T11:20:50;101862.69;;;15.37;56.81
71344;BME280;59146;43.850;25.948;2023-05-09T11:23:18;101886.66;;;15.32;57.64
71344;BME280;59146;43.850;25.948;2023-05-09T11:25:47;101867.94;;;15.37;57.01
71344;BME280;59146;43.850;25.948;2023-05-09T11:28:33;101839.84;;;15.07;56.52
71344;BME280;59146;43.850;25.948;2023-05-09T11:31:13;101912.59;;;15.54;56.02
71344;BME280;59146;43.850;25.948;2023-05-09T11:33:40;101889.34;;;15.46;56.78
71344;BME280;59146;43.850;25.948;2023-05-09T11:36:15;101847.25;;;15.31;56.41
71344;BME280;59146;43.850;25.948;2023-05-09T11:38:47;101858.53;;;15.33;56.24
71344;BME280;59146;43.850;25.948;2023-05-09T11:41:13;101887.78;;;15.58;56.33
71344;BME280;59146;43.850;25.948;2023-05-09T11:43:39;101878.56;;;15.65;56.08
71344;BME280;59146;43.850;25.948;2023-05-09T11:46:06;101779.28;;;14.93;55.72
71344;BME280;59146;43.850;25.948;2023-05-09T11:48:39;101874.03;;;15.53;55.83
71344;BME280;59146;43.850;25.948;2023-05-09T11:51:04;101835.38;;;15.24;56.21
71344;BME280;59146;43.850;25.948;2023-05-09T11:53:30;101850.28;;;15.39;55.72
71344;BME280;59146;43.850;25.948;2023-05-09T11:55:56;101862.38;;;15.27;56.06
71344;BME280;59146;43.850;25.948;2023-05-09T11:58:21;101811.69;;;15.24;55.98
71344;BME280;59146;43.850;25.948;2023-05-09T12:00:47;101851.94;;;15.55;55.60
71344;BME280;59146;43.850;25.948;2023-05-09T12:03:13;101877.19;;;15.44;56.13
71344;BME280;59146;43.850;25.948;2023-05-09T12:05:38;101878.78;;;15.76;54.75
71344;BME280;59146;43.850;25.948;2023-05-09T12:08:05;101867.69;;;16.27;53.56
71344;BME280;59146;43.850;25.948;2023-05-09T12:10:31;101817.00;;;16.22;51.83
71344;BME280;59146;43.850;25.948;2023-05-09T12:12:57;101860.31;;;16.32;51.76
71344;BME280;59146;43.850;25.948;2023-05-09T12:15:23;101868.59;;;16.26;52.41
71344;BME280;59146;43.850;25.948;2023-05-09T12:18:05;101841.13;;;16.16;53.53
71344;BME280;59146;43.850;25.948;2023-05-09T12:20:58;101871.94;;;16.71;52.61
71344;BME280;59146;43.850;25.948;2023-05-09T12:23:23;101792.91;;;16.69;51.47
71344;BME280;59146;43.850;25.948;2023-05-09T12:25:53;101854.84;;;17.42;50.79
71344;BME280;59146;43.850;25.948;2023-05-09T12:28:21;101852.88;;;17.71;50.05
71344;BME280;59146;43.850;25.948;2023-05-09T12:30:47;101836.63;;;17.25;50.90
71344;BME280;59146;43.850;25.948;2023-05-09T12:33:13;101759.06;;;15.94;52.17
71344;BME280;59146;43.850;25.948;2023-05-09T12:35:39;101830.38;;;16.19;52.58
71344;BME280;59146;43.850;25.948;2023-05-09T12:38:04;101835.88;;;16.02;53.12
71344;BME280;59146;43.850;25.948;2023-05-09T12:40:30;101785.25;;;15.69;53.59
71344;BME280;59146;43.850;25.948;2023-05-09T12:42:56;101845.94;;;15.96;54.93
71344;BME280;59146;43.850;25.948;2023-05-09T12:45:25;101787.50;;;15.47;54.90
71344;BME280;59146;43.850;25.948;2023-05-09T12:47:51;101827.78;;;15.91;55.10
71344;BME280;59146;43.850;25.948;2023-05-09T12:50:17;101787.97;;;15.81;54.93
71344;BME280;59146;43.850;25.948;2023-05-09T12:52:49;101787.34;;;15.50;54.89
71344;BME280;59146;43.850;25.948;2023-05-09T12:55:15;101782.19;;;15.33;55.84
71344;BME280;59146;43.850;25.948;2023-05-09T12:57:40;101799.66;;;15.49;57.33
71344;BME280;59146;43.850;25.948;2023-05-09T13:00:08;101818.56;;;15.56;57.45